Time;durP1;ratioP1;P1;durP2;ratioP2;P2;SDS_P1;SDS_P2;PMS_P1;PMS_P2;Temp;Humidity;BMP_temperature;BMP_pressure;BME280_temperature;BME280_humidity;BME280_pressure;Samples;Min_cycle;Max_cycle;Signal;HPM_P1;HPM_P2
2021/05/24 00:00:22;;;;;;;2.53;1.70;;;;;;;6.15;84.11;98816.16;5032081;28;20021;-70
2021/05/24 00:02:49;;;;;;;3.47;1.73;;;;;;;6.01;85.02;98811.53;5015688;28;20038;-70
2021/05/24 00:05:20;;;;;;;2.92;1.48;;;;;;;5.89;85.04;98813.75;5016068;28;20418;-70
2021/05/24 00:07:45;;;;;;;3.13;1.50;;;;;;;5.86;85.68;98805.19;5030795;28;20612;-70
2021/05/24 00:10:15;;;;;;;4.35;1.70;;;;;;;5.70;86.19;98796.16;5031571;28;20051;-71
2021/05/24 00:12:46;;;;;;;;;;;;;;;5.75;85.94;98805.56;5020412;28;20025;-70
2021/05/24 00:15:15;;;;;;;3.13;1.70;;;;;;;5.58;86.04;98772.53;5011417;28;19915;-71
2021/05/24 00:17:40;;;;;;;6.75;1.55;;;;;;;5.54;85.23;98790.84;5023931;28;20033;-70
2021/05/24 00:20:06;;;;;;;3.13;1.80;;;;;;;5.56;86.55;98796.88;5032037;28;20032;-71
2021/05/24 00:22:31;;;;;;;3.53;1.92;;;;;;;5.53;86.62;98781.13;5020551;28;20091;-70
2021/05/24 00:24:57;;;;;;;4.13;1.88;;;;;;;5.60;86.22;98775.91;5030564;28;20490;-70
2021/05/24 00:27:22;;;;;;;3.60;1.80;;;;;;;5.68;86.49;98774.03;5028333;28;20539;-71
2021/05/24 00:29:47;;;;;;;3.70;1.77;;;;;;;5.75;85.85;98758.06;5024684;28;20049;-71
2021/05/24 00:32:13;;;;;;;3.08;1.80;;;;;;;5.55;85.43;98744.19;5032074;28;20079;-72
2021/05/24 00:34:38;;;;;;;5.32;2.13;;;;;;;5.57;86.20;98752.94;5036438;28;20037;-71
2021/05/24 00:37:03;;;;;;;3.60;1.90;;;;;;;5.44;85.80;98755.31;5029633;28;20034;-72
2021/05/24 00:39:29;;;;;;;3.72;1.95;;;;;;;5.38;85.79;98764.88;5029907;28;20021;-72
2021/05/24 00:41:55;;;;;;;4.75;1.98;;;;;;;5.32;86.22;98754.84;5018005;28;20052;-71
2021/05/24 00:44:22;;;;;;;4.50;1.85;;;;;;;5.42;86.52;98757.31;5016061;28;20033;-71
2021/05/24 00:46:47;;;;;;;2.25;1.50;;;;;;;5.41;86.40;98759.19;5017104;28;20053;-72
2021/05/24 00:49:13;;;;;;;3.25;1.77;;;;;;;5.37;86.14;98748.94;5033134;28;20094;-72
2021/05/24 00:51:38;;;;;;;3.42;1.58;;;;;;;5.40;86.09;98756.69;5034315;28;20029;-72
2021/05/24 00:54:04;;;;;;;4.43;1.50;;;;;;;5.32;86.01;98740.59;5035353;28;20486;-72
2021/05/24 00:56:30;;;;;;;2.67;1.52;;;;;;;5.42;84.54;98742.09;5030069;28;20032;-72
2021/05/24 00:58:55;;;;;;;3.78;1.52;;;;;;;5.28;85.20;98714.09;5032411;28;20115;-72
2021/05/24 01:01:21;;;;;;;4.57;1.70;;;;;;;5.20;86.13;98705.25;5035184;28;20100;-72
2021/05/24 01:03:47;;;;;;;4.18;1.70;;;;;;;5.36;86.25;98721.28;5035642;28;20414;-71
2021/05/24 01:06:12;;;;;;;5.25;1.63;;;;;;;5.46;85.72;98713.06;5034149;28;20538;-71
2021/05/24 01:08:38;;;;;;;3.15;1.75;;;;;;;5.26;84.69;98693.81;5033734;28;20498;-71
2021/05/24 01:11:03;;;;;;;2.42;1.60;;;;;;;5.37;83.99;98711.41;5033246;28;20083;-72
2021/05/24 01:13:28;;;;;;;3.50;2.10;;;;;;;5.28;84.06;98700.69;5033483;28;20041;-72
2021/05/24 01:15:54;;;;;;;4.07;2.10;;;;;;;5.23;84.37;98721.81;5033564;28;20022;-72
2021/05/24 01:18:19;;;;;;;3.45;1.98;;;;;;;5.10;85.25;98712.66;5034856;28;20033;-71
2021/05/24 01:20:45;;;;;;;3.10;2.07;;;;;;;5.22;84.82;98724.69;5034669;28;20033;-71
2021/05/24 01:23:14;;;;;;;2.63;1.80;;;;;;;5.10;85.48;98715.31;5029520;28;20038;-72
2021/05/24 01:25:48;;;;;;;2.92;2.00;;;;;;;5.01;86.11;98712.66;5029998;28;20029;-72
2021/05/24 01:28:16;;;;;;;4.22;1.70;;;;;;;5.08;85.86;98722.69;5034784;28;20040;-72
2021/05/24 01:30:42;;;;;;;3.95;1.80;;;;;;;4.96;86.86;98711.50;5032896;28;20118;-72
2021/05/24 01:33:09;;;;;;;8.00;2.17;;;;;;;4.99;87.22;98706.63;5034260;28;20168;-72
2021/05/24 01:35:39;;;;;;;5.03;1.92;;;;;;;5.01;87.64;98707.31;5034779;28;20032;-72
2021/05/24 01:38:06;;;;;;;4.45;1.75;;;;;;;5.03;87.40;98701.75;5017352;28;20033;-72
2021/05/24 01:40:34;;;;;;;2.20;1.35;;;;;;;4.85;87.58;98691.25;5013681;28;20075;-72
2021/05/24 01:43:00;;;;;;;2.55;1.50;;;;;;;4.78;87.65;98677.66;5029392;28;20026;-72
2021/05/24 01:45:26;;;;;;;1.20;1.10;;;;;;;4.83;88.13;98701.28;5033048;28;20433;-72
2021/05/24 01:47:53;;;;;;;2.20;1.35;;;;;;;4.73;88.12;98685.38;5033031;28;20022;-72
2021/05/24 01:50:19;;;;;;;2.53;1.45;;;;;;;4.81;88.23;98689.91;5032958;28;20087;-72
2021/05/24 01:52:44;;;;;;;3.17;1.65;;;;;;;4.90;88.42;98672.81;5024265;28;20426;-72
2021/05/24 01:55:12;;;;;;;5.22;1.77;;;;;;;4.94;88.44;98668.75;5016721;28;20026;-72
2021/05/24 01:57:38;;;;;;;3.80;1.70;;;;;;;4.83;87.54;98647.69;5021732;28;20549;-72
2021/05/24 02:00:12;;;;;;;3.05;1.58;;;;;;;4.83;88.00;98661.09;5034349;28;20112;-72
2021/05/24 02:02:48;;;;;;;3.78;1.45;;;;;;;4.84;88.43;98678.84;5033878;28;20020;-72
2021/05/24 02:05:15;;;;;;;3.95;1.42;;;;;;;4.81;88.94;98688.03;5018193;28;20061;-70
2021/05/24 02:07:41;;;;;;;3.67;1.70;;;;;;;4.78;88.11;98684.88;5014323;28;20026;-70
2021/05/24 02:10:09;;;;;;;2.78;1.30;;;;;;;4.72;88.82;98683.72;5025569;28;20033;-70
2021/05/24 02:12:34;;;;;;;3.72;1.30;;;;;;;4.65;89.79;98663.13;5034007;28;20089;-71
2021/05/24 02:15:00;;;;;;;3.30;1.48;;;;;;;4.72;89.18;98672.16;5034048;28;20040;-71
2021/05/24 02:17:25;;;;;;;2.22;1.48;;;;;;;4.68;89.13;98670.81;5032427;28;20079;-71
2021/05/24 02:19:52;;;;;;;1.95;1.13;;;;;;;4.66;88.98;98680.88;5023471;28;20041;-71
2021/05/24 02:22:18;;;;;;;2.70;1.48;;;;;;;4.64;88.64;98661.44;5022122;28;20368;-71
2021/05/24 02:24:43;;;;;;;2.20;1.58;;;;;;;4.66;88.50;98659.44;5028372;28;20041;-71
2021/05/24 02:27:09;;;;;;;1.85;1.27;;;;;;;4.67;88.67;98661.94;5029222;28;20026;-71
2021/05/24 02:29:34;;;;;;;2.75;1.45;;;;;;;4.72;88.85;98677.53;5017893;28;20471;-71
2021/05/24 02:31:59;;;;;;;2.83;1.60;;;;;;;4.66;89.00;98656.75;5033236;28;20094;-71
2021/05/24 02:34:25;;;;;;;2.72;1.65;;;;;;;4.62;89.47;98669.66;5026437;28;20057;-71
2021/05/24 02:36:50;;;;;;;2.25;1.40;;;;;;;4.70;88.77;98668.81;5033405;28;20029;-71
2021/05/24 02:39:15;;;;;;;3.63;1.60;;;;;;;4.47;88.90;98650.72;5027708;28;20021;-71
2021/05/24 02:41:41;;;;;;;2.10;1.40;;;;;;;4.56;88.37;98652.41;5019553;28;20025;-72
2021/05/24 02:44:06;;;;;;;2.58;1.70;;;;;;;4.54;88.75;98642.88;5033204;28;20047;-72
2021/05/24 02:46:33;;;;;;;6.38;1.35;;;;;;;4.57;88.31;98635.31;5033451;28;20100;-72
2021/05/24 02:48:59;;;;;;;3.17;1.42;;;;;;;4.61;87.59;98634.00;5032982;28;20028;-71
2021/05/24 02:51:25;;;;;;;3.25;1.40;;;;;;;4.60;87.69;98621.59;5021078;28;20026;-71
2021/05/24 02:53:50;;;;;;;3.30;1.30;;;;;;;4.67;87.53;98632.47;5025569;28;20029;-72
2021/05/24 02:56:16;;;;;;;2.10;1.35;;;;;;;4.58;87.43;98615.59;5032352;28;20029;-71
2021/05/24 02:58:41;;;;;;;2.45;1.48;;;;;;;4.63;87.38;98608.84;5032921;28;20652;-71
2021/05/24 03:01:09;;;;;;;4.15;1.40;;;;;;;4.69;87.31;98619.75;5031338;28;20502;-71
2021/05/24 03:03:35;;;;;;;3.90;1.50;;;;;;;4.97;86.97;98617.47;5031330;28;20489;-71
2021/05/24 03:06:04;;;;;;;4.45;1.55;;;;;;;5.04;85.99;98607.75;5014085;28;20029;-71
2021/05/24 03:08:31;;;;;;;2.90;1.60;;;;;;;5.05;85.93;98614.78;5013760;28;20395;-71
2021/05/24 03:10:57;;;;;;;2.95;1.58;;;;;;;5.02;86.41;98611.59;5022295;28;20036;-72
2021/05/24 03:13:25;;;;;;;4.15;1.63;;;;;;;5.00;86.48;98627.88;5030411;28;20434;-72
2021/05/24 03:15:52;;;;;;;5.72;1.70;;;;;;;4.93;86.54;98624.22;5021023;28;20518;-72
2021/05/24 03:18:17;;;;;;;3.10;1.30;;;;;;;4.87;85.05;98624.03;5012985;28;20120;-71
2021/05/24 03:20:42;;;;;;;2.60;1.40;;;;;;;4.80;85.77;98587.22;5023930;28;20052;-72
2021/05/24 03:23:08;;;;;;;4.13;1.45;;;;;;;4.94;86.06;98620.50;5031661;28;20037;-72
2021/05/24 03:25:33;;;;;;;3.13;1.60;;;;;;;4.92;85.28;98613.66;5019822;28;20424;-72
2021/05/24 03:27:58;;;;;;;2.78;1.50;;;;;;;5.05;85.13;98609.41;5032305;28;20527;-72
2021/05/24 03:30:23;;;;;;;3.03;1.60;;;;;;;5.02;83.53;98625.00;5032587;28;20018;-72
2021/05/24 03:32:49;;;;;;;3.58;1.50;;;;;;;4.90;84.50;98618.34;5016373;28;20056;-72
2021/05/24 03:35:14;;;;;;;3.63;1.67;;;;;;;4.86;85.70;98623.22;5021918;28;20053;-72
2021/05/24 03:37:40;;;;;;;3.33;1.70;;;;;;;4.90;85.67;98627.25;5031319;28;20128;-72
2021/05/24 03:40:06;;;;;;;2.65;1.63;;;;;;;4.84;85.21;98620.69;5031213;28;20025;-72
2021/05/24 03:42:32;;;;;;;2.45;1.55;;;;;;;4.92;85.71;98627.88;5028051;28;20041;-72
2021/05/24 03:44:58;;;;;;;3.00;1.80;;;;;;;4.93;85.28;98634.94;5024589;28;20394;-72
2021/05/24 03:47:24;;;;;;;2.60;1.67;;;;;;;4.84;84.41;98625.22;5032287;28;20025;-72
2021/05/24 03:49:49;;;;;;;2.67;1.63;;;;;;;4.87;84.40;98622.19;5030226;28;20032;-72
2021/05/24 03:52:16;;;;;;;4.07;2.20;;;;;;;4.82;84.22;98620.06;5021187;28;20103;-72
2021/05/24 03:54:42;;;;;;;3.22;1.90;;;;;;;4.90;84.38;98621.88;5012510;28;20076;-72
2021/05/24 03:57:09;;;;;;;3.78;2.10;;;;;;;4.83;84.79;98607.47;5027856;28;20641;-72
2021/05/24 03:59:35;;;;;;;2.60;1.70;;;;;;;4.93;84.43;98618.84;5032027;28;20086;-72
2021/05/24 04:02:00;;;;;;;2.78;1.58;;;;;;;4.90;84.91;98612.97;5031302;28;20488;-72
2021/05/24 04:04:26;;;;;;;2.10;1.50;;;;;;;5.00;84.56;98601.06;5031788;28;20372;-71
2021/05/24 04:06:53;;;;;;;3.00;1.40;;;;;;;5.17;84.81;98617.94;5029090;28;20479;-72
2021/05/24 04:09:20;;;;;;;2.28;1.42;;;;;;;5.24;84.38;98618.91;5014554;28;20029;-72
2021/05/24 04:11:45;;;;;;;1.98;1.20;;;;;;;5.37;84.47;98609.44;5024845;28;20121;-72
2021/05/24 04:14:10;;;;;;;5.30;1.45;;;;;;;5.42;83.79;98615.13;5021352;28;20048;-72
2021/05/24 04:16:35;;;;;;;3.53;1.35;;;;;;;5.44;84.14;98611.25;5028612;28;20037;-72
2021/05/24 04:19:06;;;;;;;4.40;2.03;;;;;;;5.49;83.88;98630.34;5021383;28;20033;-71
2021/05/24 04:21:31;;;;;;;5.50;1.40;;;;;;;5.51;83.70;98611.41;5010855;28;20040;-72
2021/05/24 04:23:57;;;;;;;1.63;1.30;;;;;;;5.64;83.90;98619.72;5012154;28;20033;-71
2021/05/24 04:26:22;;;;;;;2.85;1.33;;;;;;;5.72;83.30;98635.78;5025062;28;20037;-71
2021/05/24 04:28:47;;;;;;;6.00;1.35;;;;;;;5.82;82.83;98615.94;5031564;28;20033;-71
2021/05/24 04:31:12;;;;;;;3.50;1.25;;;;;;;5.98;82.58;98618.53;5025697;28;20425;-71
2021/05/24 04:33:38;;;;;;;3.30;1.35;;;;;;;5.97;82.28;98611.47;5031915;28;20022;-71
2021/05/24 04:36:03;;;;;;;3.13;1.27;;;;;;;5.95;82.29;98605.47;5030609;28;20021;-71
2021/05/24 04:38:29;;;;;;;1.75;1.30;;;;;;;5.96;82.14;98606.31;5031369;28;20021;-71
2021/05/24 04:40:54;;;;;;;4.45;1.30;;;;;;;5.99;82.20;98608.63;5027352;28;20094;-71
2021/05/24 04:43:22;;;;;;;2.28;1.50;;;;;;;5.97;82.35;98600.75;5012482;28;20029;-71
2021/05/24 04:45:47;;;;;;;3.38;1.60;;;;;;;6.18;81.61;98618.06;5030289;28;20025;-71
2021/05/24 04:48:12;;;;;;;1.70;1.15;;;;;;;6.08;81.74;98608.41;5031502;28;20475;-71
2021/05/24 04:50:38;;;;;;;3.08;1.50;;;;;;;6.24;81.81;98596.69;5021450;28;20034;-71
2021/05/24 04:53:03;;;;;;;1.63;1.20;;;;;;;6.47;80.51;98593.13;5026869;28;20029;-71
2021/05/24 04:55:29;;;;;;;2.95;1.30;;;;;;;6.55;80.53;98595.75;5026573;28;20482;-71
2021/05/24 04:57:54;;;;;;;5.60;1.85;;;;;;;6.53;80.23;98595.91;5031295;28;20021;-71
2021/05/24 05:00:20;;;;;;;3.08;1.20;;;;;;;6.50;79.74;98560.53;5031520;28;20503;-71
2021/05/24 05:02:45;;;;;;;3.15;1.15;;;;;;;6.63;79.75;98576.84;5031445;28;20053;-71
2021/05/24 05:05:11;;;;;;;3.25;1.30;;;;;;;6.72;79.31;98583.81;5031485;28;20029;-71
2021/05/24 05:07:37;;;;;;;3.05;1.33;;;;;;;6.91;79.18;98592.34;5031383;28;20067;-71
2021/05/24 05:10:03;;;;;;;4.95;1.80;;;;;;;7.09;79.38;98595.50;5029046;28;20613;-71
2021/05/24 05:12:29;;;;;;;2.17;1.27;;;;;;;7.16;77.87;98574.91;5030531;28;20025;-71
2021/05/24 05:14:55;;;;;;;4.55;1.70;;;;;;;7.25;77.52;98573.75;5031401;28;20040;-71
2021/05/24 05:17:21;;;;;;;8.63;2.95;;;;;;;7.23;77.66;98591.97;5030051;28;20104;-71
2021/05/24 05:19:46;;;;;;;7.18;2.67;;;;;;;7.35;76.97;98573.47;5033495;28;20053;-71
2021/05/24 05:22:11;;;;;;;8.93;3.58;;;;;;;7.37;77.00;98566.06;5033920;28;20029;-71
2021/05/24 05:24:37;;;;;;;2.72;1.65;;;;;;;7.52;76.14;98582.19;5035061;28;20041;-71
2021/05/24 05:27:02;;;;;;;3.53;1.85;;;;;;;7.67;76.14;98588.34;5021737;28;20026;-71
2021/05/24 05:29:28;;;;;;;2.15;1.35;;;;;;;7.68;76.22;98559.56;5013831;28;20125;-71
2021/05/24 05:31:53;;;;;;;5.70;2.08;;;;;;;7.74;76.54;98572.28;5015239;28;20100;-71
2021/05/24 05:34:18;;;;;;;4.82;2.20;;;;;;;7.93;76.46;98572.66;5027645;28;20045;-71
2021/05/24 05:36:44;;;;;;;5.20;2.88;;;;;;;7.94;75.80;98569.78;5025247;28;20025;-69
2021/05/24 05:39:09;;;;;;;6.05;2.47;;;;;;;8.11;74.60;98562.28;5026074;28;20045;-69
2021/05/24 05:41:35;;;;;;;3.95;1.70;;;;;;;8.35;74.14;98578.03;5034694;28;20451;-69
2021/05/24 05:44:05;;;;;;;2.97;1.83;;;;;;;8.36;74.11;98573.50;5033482;28;20037;-69
2021/05/24 05:46:32;;;;;;;6.10;2.00;;;;;;;8.50;74.13;98577.97;5034510;28;20418;-70
2021/05/24 05:48:57;;;;;;;4.80;2.42;;;;;;;8.58;74.45;98568.09;5032112;28;20033;-70
2021/05/24 05:51:22;;;;;;;4.65;1.77;;;;;;;8.66;74.09;98571.44;5026152;23;20050;-70
2021/05/24 05:53:48;;;;;;;7.18;1.95;;;;;;;8.91;72.95;98562.91;4991952;28;20062;-75
2021/05/24 05:56:13;;;;;;;4.78;1.58;;;;;;;9.26;71.91;98561.00;4993933;28;20030;-75
2021/05/24 05:58:38;;;;;;;3.55;2.00;;;;;;;9.21;72.17;98558.06;4993393;28;20019;-73
2021/05/24 06:01:05;;;;;;;5.97;1.40;;;;;;;9.10;72.66;98543.28;4983712;28;20026;-72
2021/05/24 06:03:31;;;;;;;2.70;1.55;;;;;;;8.95;74.47;98545.28;4980579;28;20104;-74
2021/05/24 06:05:57;;;;;;;3.60;1.67;;;;;;;9.05;74.68;98553.03;4986822;28;20444;-73
2021/05/24 06:08:22;;;;;;;3.75;1.50;;;;;;;9.12;75.24;98552.03;4987452;28;20109;-72
2021/05/24 06:10:47;;;;;;;7.85;1.77;;;;;;;9.24;75.16;98535.25;4993581;28;20038;-72
2021/05/24 06:13:13;;;;;;;8.32;1.77;;;;;;;9.42;74.82;98547.16;4988510;28;20420;-72
2021/05/24 06:15:38;;;;;;;4.78;1.65;;;;;;;9.55;74.72;98535.56;4979999;28;20030;-72
2021/05/24 06:18:03;;;;;;;1.52;1.30;;;;;;;9.85;72.79;98529.81;4977465;28;20626;-69
2021/05/24 06:20:30;;;;;;;3.53;1.52;;;;;;;9.99;71.29;98523.41;4985312;28;20076;-72
2021/05/24 06:22:56;;;;;;;2.42;1.20;;;;;;;10.15;71.12;98527.56;4996109;28;20030;-72
2021/05/24 06:25:21;;;;;;;2.80;1.58;;;;;;;10.23;70.85;98521.94;4990853;28;20031;-72
2021/05/24 06:27:46;;;;;;;5.18;1.50;;;;;;;10.70;70.30;98538.19;4987002;28;20022;-72
2021/05/24 06:30:12;;;;;;;3.47;1.50;;;;;;;10.95;69.00;98531.03;4989434;28;20072;-69
2021/05/24 06:32:38;;;;;;;5.03;2.30;;;;;;;11.37;68.81;98533.38;4985973;28;20026;-72
2021/05/24 06:35:04;;;;;;;3.55;2.72;;;;;;;11.24;68.60;98541.56;4988824;28;20026;-71
2021/05/24 06:37:29;;;;;;;3.40;1.58;;;;;;;11.46;66.00;98534.81;4997110;28;20030;-70
2021/05/24 06:39:54;;;;;;;4.70;1.95;;;;;;;11.56;65.78;98535.19;4992963;28;20038;-70
2021/05/24 06:42:20;;;;;;;3.35;1.80;;;;;;;11.67;65.76;98530.13;5001612;28;20391;-70
2021/05/24 06:44:46;;;;;;;2.92;1.30;;;;;;;11.83;64.46;98529.59;4994147;28;20026;-72
2021/05/24 06:47:11;;;;;;;2.20;1.38;;;;;;;11.83;64.14;98535.84;4994509;28;20476;-69
2021/05/24 06:49:37;;;;;;;2.75;1.40;;;;;;;12.24;63.76;98531.84;4997026;28;20361;-73
2021/05/24 06:52:03;;;;;;;2.13;1.40;;;;;;;12.54;62.51;98533.88;4984236;28;20066;-73
2021/05/24 06:54:28;;;;;;;3.42;1.25;;;;;;;12.84;61.81;98536.75;4986482;28;20027;-73
2021/05/24 06:56:54;;;;;;;2.22;1.40;;;;;;;12.45;62.80;98521.66;4989548;28;20472;-72
2021/05/24 06:59:19;;;;;;;2.38;1.30;;;;;;;12.75;62.68;98532.66;4983726;28;20436;-71
2021/05/24 07:01:45;;;;;;;2.78;1.40;;;;;;;12.85;63.44;98530.25;4985702;28;20042;-74
2021/05/24 07:04:10;;;;;;;2.63;1.40;;;;;;;13.12;62.06;98522.63;4979555;28;20030;-73
2021/05/24 07:06:35;;;;;;;3.10;1.45;;;;;;;13.22;62.54;98527.53;4980727;28;20018;-72
2021/05/24 07:09:01;;;;;;;2.53;1.60;;;;;;;13.26;62.51;98525.22;4983025;28;20027;-70
2021/05/24 07:11:27;;;;;;;3.13;1.33;;;;;;;13.82;61.35;98522.19;4990926;28;20088;-75
2021/05/24 07:13:52;;;;;;;1.60;1.00;;;;;;;13.61;62.06;98508.28;4994139;28;20026;-75
2021/05/24 07:16:17;;;;;;;6.18;1.73;;;;;;;15.09;59.14;98504.56;4991084;28;20034;-73
2021/05/24 07:18:43;;;;;;;2.60;1.60;;;;;;;16.36;55.04;98507.22;4991689;28;20045;-73
2021/05/24 07:21:08;;;;;;;1.80;1.50;;;;;;;17.74;51.59;98499.00;4990806;28;20029;-73
2021/05/24 07:23:34;;;;;;;2.35;1.45;;;;;;;18.43;50.54;98492.00;4975892;28;20077;-77
2021/05/24 07:25:59;;;;;;;2.40;1.52;;;;;;;18.66;49.13;98492.72;4980764;28;20041;-79
2021/05/24 07:28:25;;;;;;;2.38;1.27;;;;;;;19.25;48.69;98495.25;4989217;28;20054;-71
2021/05/24 07:30:50;;;;;;;2.13;1.10;;;;;;;19.40;48.36;98495.34;4987095;28;20404;-72
2021/05/24 07:33:15;;;;;;;2.20;1.02;;;;;;;20.09;46.35;98502.38;4981253;28;20526;-72
2021/05/24 07:35:41;;;;;;;2.53;0.95;;;;;;;21.28;45.16;98497.63;4991008;28;20060;-72
2021/05/24 07:38:08;;;;;;;5.68;0.90;;;;;;;21.20;45.19;98499.84;4987364;28;20038;-72
2021/05/24 07:40:33;;;;;;;1.88;1.00;;;;;;;21.41;44.73;98503.38;4989521;28;20033;-72
2021/05/24 07:42:58;;;;;;;2.08;1.02;;;;;;;20.46;46.56;98500.50;4985556;28;20038;-72
2021/05/24 07:45:24;;;;;;;2.75;1.20;;;;;;;20.42;45.97;98493.91;4986585;28;20026;-72
2021/05/24 07:47:49;;;;;;;2.40;1.00;;;;;;;20.09;45.31;98490.59;4990556;28;20053;-72
2021/05/24 07:50:14;;;;;;;2.13;0.80;;;;;;;19.46;44.32;98477.78;4982402;28;20030;-72
2021/05/24 07:52:40;;;;;;;0.90;0.65;;;;;;;19.72;43.72;98477.91;4990396;28;20109;-72
2021/05/24 07:55:06;;;;;;;1.08;0.65;;;;;;;19.54;43.92;98473.69;4982334;28;20037;-72
2021/05/24 07:57:32;;;;;;;1.83;0.50;;;;;;;18.93;44.56;98479.75;4984326;28;20073;-72
2021/05/24 07:59:57;;;;;;;1.45;0.60;;;;;;;18.67;44.71;98469.69;4986147;28;20026;-71
2021/05/24 08:02:23;;;;;;;4.32;0.63;;;;;;;18.23;45.26;98461.72;4990103;28;20030;-72
2021/05/24 08:04:49;;;;;;;1.45;0.68;;;;;;;18.28;45.73;98469.97;4989528;28;20480;-71
2021/05/24 08:07:15;;;;;;;2.28;0.47;;;;;;;18.34;45.97;98452.50;4984400;28;20113;-72
2021/05/24 08:09:40;;;;;;;1.20;0.47;;;;;;;17.75;46.68;98467.00;4985416;28;20109;-72
2021/05/24 08:12:06;;;;;;;2.08;0.50;;;;;;;17.66;47.03;98460.34;4987885;28;20022;-72
2021/05/24 08:14:31;;;;;;;0.65;0.40;;;;;;;17.93;46.60;98460.38;4981666;28;20057;-72
2021/05/24 08:16:58;;;;;;;0.60;0.30;;;;;;;18.23;46.33;98475.41;4990168;28;20054;-72
2021/05/24 08:19:23;;;;;;;1.10;0.57;;;;;;;17.53;47.24;98473.34;4990107;28;20449;-72
2021/05/24 08:21:50;;;;;;;0.75;0.47;;;;;;;17.58;47.69;98471.72;4987845;28;20047;-71
2021/05/24 08:24:16;;;;;;;1.35;0.70;;;;;;;17.33;48.42;98464.09;4992242;28;20033;-75
2021/05/24 08:26:43;;;;;;;3.13;0.50;;;;;;;17.52;47.71;98470.84;4999714;28;20033;-75
2021/05/24 08:29:09;;;;;;;1.60;0.55;;;;;;;18.14;47.34;98461.38;4994024;28;20109;-75
2021/05/24 08:31:35;;;;;;;1.90;0.52;;;;;;;18.91;45.82;98460.00;4981831;28;20122;-74
2021/05/24 08:34:01;;;;;;;0.90;0.50;;;;;;;19.20;44.96;98452.22;4992559;28;20061;-74
2021/05/24 08:36:26;;;;;;;1.98;0.90;;;;;;;19.32;44.30;98451.97;4991322;28;20026;-72
2021/05/24 08:38:52;;;;;;;2.38;0.40;;;;;;;19.96;42.99;98441.69;4987500;28;20522;-71
2021/05/24 08:41:18;;;;;;;1.67;0.50;;;;;;;20.29;42.55;98435.66;4990500;28;20026;-71
2021/05/24 08:43:43;;;;;;;0.73;0.40;;;;;;;20.75;41.44;98438.38;4986458;28;20035;-71
2021/05/24 08:46:09;;;;;;;0.50;0.35;;;;;;;20.37;42.03;98420.53;4987142;28;20049;-72
2021/05/24 08:48:35;;;;;;;0.57;0.45;;;;;;;20.76;41.75;98420.75;4989686;28;20030;-72
2021/05/24 08:51:00;;;;;;;0.82;0.40;;;;;;;20.16;42.39;98421.66;4984591;28;20057;-74
2021/05/24 08:53:27;;;;;;;1.02;0.40;;;;;;;20.78;41.50;98410.31;4988690;28;20038;-70
2021/05/24 08:55:56;;;;;;;1.10;0.47;;;;;;;21.21;40.80;98412.63;4995387;28;20022;-74
2021/05/24 08:58:22;;;;;;;0.77;0.40;;;;;;;21.80;39.86;98410.94;4995095;28;20125;-75
2021/05/24 09:00:48;;;;;;;0.80;0.50;;;;;;;22.74;38.55;98400.47;5000853;28;20061;-75
2021/05/24 09:03:21;;;;;;;2.35;0.43;;;;;;;23.22;37.20;98407.09;4992866;28;20069;-75
2021/05/24 09:05:48;;;;;;;1.00;0.40;;;;;;;23.34;37.73;98399.19;4990954;28;20022;-75
2021/05/24 09:08:13;;;;;;;1.80;0.55;;;;;;;24.38;34.86;98386.25;4995283;28;20057;-75
2021/05/24 09:10:42;;;;;;;0.95;0.40;;;;;;;24.74;34.73;98400.28;4982366;28;20023;-76
2021/05/24 09:13:16;;;;;;;0.95;0.52;;;;;;;24.67;34.53;98397.09;4977032;28;20018;-73
2021/05/24 09:15:44;;;;;;;1.38;0.60;;;;;;;25.09;32.73;98389.59;4990495;28;20030;-73
2021/05/24 09:18:10;;;;;;;1.33;0.50;;;;;;;25.72;32.99;98385.19;4998708;28;20045;-70
2021/05/24 09:20:41;;;;;;;1.33;0.40;;;;;;;23.80;34.72;98388.31;4978975;28;20053;-72
2021/05/24 09:23:17;;;;;;;2.20;0.70;;;;;;;24.28;35.62;98390.03;5000660;28;20438;-72
2021/05/24 09:26:04;;;;;;;1.23;0.50;;;;;;;24.54;34.62;98379.34;4990845;28;20080;-71
2021/05/24 09:28:51;;;;;;;0.60;0.40;;;;;;;24.62;35.34;98386.13;5002085;28;20618;-72
2021/05/24 09:31:20;;;;;;;1.65;0.50;;;;;;;23.49;36.52;98376.06;4999749;28;20113;-72
2021/05/24 09:33:49;;;;;;;2.03;0.50;;;;;;;23.36;37.08;98372.94;4985775;28;20035;-72
2021/05/24 09:36:15;;;;;;;1.67;0.47;;;;;;;23.05;38.21;98378.03;4988563;28;20038;-72
2021/05/24 09:38:48;;;;;;;2.10;0.50;;;;;;;23.05;36.37;98378.03;5002547;28;20030;-72
2021/05/24 09:41:16;;;;;;;2.28;0.45;;;;;;;22.44;37.87;98378.72;4998124;28;20100;-72
2021/05/24 09:43:56;;;;;;;3.35;0.77;;;;;;;22.30;38.59;98373.09;4982219;28;20088;-72
2021/05/24 09:46:24;;;;;;;0.95;0.40;;;;;;;23.05;37.30;98366.19;4989698;28;20041;-72
2021/05/24 09:48:51;;;;;;;3.20;0.70;;;;;;;22.75;37.98;98368.19;4972724;28;20183;-71
2021/05/24 09:51:20;;;;;;;2.45;0.70;;;;;;;22.05;38.98;98371.34;4984868;28;20122;-72
2021/05/24 09:54:09;;;;;;;1.27;0.40;;;;;;;21.66;38.49;98364.75;5003730;28;20068;-72
2021/05/24 09:56:40;;;;;;;0.55;0.28;;;;;;;21.55;39.74;98357.69;4996054;28;20041;-72
2021/05/24 09:59:13;;;;;;;1.00;0.40;;;;;;;22.08;39.05;98346.78;4986927;28;20033;-72
2021/05/24 10:01:42;;;;;;;1.52;0.60;;;;;;;22.35;38.76;98337.19;5005625;28;20038;-72
2021/05/24 10:04:10;;;;;;;;;;;;;;;21.93;39.30;98346.09;4994444;28;20041;-72
2021/05/24 10:06:35;;;;;;;0.57;0.40;;;;;;;21.54;38.98;98345.03;4999590;28;19918;-72
2021/05/24 10:09:03;;;;;;;1.98;0.60;;;;;;;22.07;38.46;98336.06;4990485;28;20025;-72
2021/05/24 10:11:29;;;;;;;1.83;0.65;;;;;;;21.69;40.18;98337.75;4982935;28;21283;-72
2021/05/24 10:13:55;;;;;;;0.30;0.30;;;;;;;21.94;39.00;98334.81;4980313;28;20045;-71
2021/05/24 10:16:21;;;;;;;0.40;0.40;;;;;;;22.04;39.16;98331.97;4984783;28;20038;-72
2021/05/24 10:18:47;;;;;;;1.35;0.40;;;;;;;20.95;39.81;98335.72;4995909;28;20045;-72
2021/05/24 10:21:13;;;;;;;1.40;0.60;;;;;;;20.53;40.33;98322.41;4997265;28;20026;-71
2021/05/24 10:23:38;;;;;;;0.68;0.40;;;;;;;21.41;39.03;98296.16;4977646;28;20022;-71
2021/05/24 10:26:06;;;;;;;0.80;0.50;;;;;;;21.62;40.11;98310.56;4992475;28;20037;-72
2021/05/24 10:28:33;;;;;;;0.70;0.40;;;;;;;21.50;39.09;98299.91;4990718;28;20034;-72
2021/05/24 10:31:00;;;;;;;0.65;0.47;;;;;;;21.57;38.91;98297.66;4992255;28;20038;-72
2021/05/24 10:33:42;;;;;;;0.95;0.63;;;;;;;22.01;39.03;98307.75;4991376;28;20864;-72
2021/05/24 10:36:17;;;;;;;1.02;0.38;;;;;;;22.25;37.34;98294.03;4987827;28;20053;-72
2021/05/24 10:38:42;;;;;;;1.38;0.73;;;;;;;22.00;37.86;98297.81;4991934;28;20070;-72
2021/05/24 10:41:13;;;;;;;3.13;0.50;;;;;;;21.41;38.96;98307.16;5011262;28;20664;-72
2021/05/24 10:43:49;;;;;;;2.75;0.90;;;;;;;21.59;38.98;98306.47;5003098;28;20068;-72
2021/05/24 10:46:26;;;;;;;0.60;0.30;;;;;;;22.01;37.72;98304.19;4986124;28;20109;-72
2021/05/24 10:49:18;;;;;;;1.08;0.30;;;;;;;21.70;39.15;98292.63;4994700;28;20034;-72
2021/05/24 10:51:46;;;;;;;1.58;0.50;;;;;;;22.20;39.06;98301.53;4991169;28;20073;-72
2021/05/24 10:54:13;;;;;;;0.75;0.45;;;;;;;21.56;39.19;98297.94;5002143;28;20110;-72
2021/05/24 10:56:45;;;;;;;3.05;0.50;;;;;;;21.62;39.74;98285.81;4976082;28;20019;-72
2021/05/24 10:59:38;;;;;;;3.58;0.82;;;;;;;21.31;40.09;98286.00;4976638;28;20045;-72
2021/05/24 11:02:10;;;;;;;1.90;0.75;;;;;;;21.59;39.90;98280.88;5009268;28;20026;-72
2021/05/24 11:04:58;;;;;;;0.65;0.30;;;;;;;21.23;39.30;98283.84;5002060;28;20034;-72
2021/05/24 11:07:27;;;;;;;2.10;0.77;;;;;;;21.17;39.72;98288.59;4994234;28;20543;-71
2021/05/24 11:09:53;;;;;;;2.22;1.05;;;;;;;21.71;40.02;98283.25;4990743;28;20034;-73
2021/05/24 11:12:31;;;;;;;3.85;1.38;;;;;;;21.33;40.87;98270.03;4989567;28;20023;-72
2021/05/24 11:15:09;;;;;;;2.78;1.00;;;;;;;21.55;39.54;98277.03;4991228;28;20038;-72
2021/05/24 11:18:03;;;;;;;1.55;0.47;;;;;;;21.48;40.72;98268.28;4975789;28;20039;-72
2021/05/24 11:20:47;;;;;;;1.33;0.60;;;;;;;20.92;41.19;98267.53;4972830;28;20062;-71
2021/05/24 11:26:15;;;;;;;0.82;0.70;;;;;;;20.63;41.95;98255.63;4983634;28;20039;-71
2021/05/24 11:28:41;;;;;;;1.85;0.50;;;;;;;20.44;41.61;98252.66;5001980;28;20030;-72
2021/05/24 11:31:17;;;;;;;1.55;0.60;;;;;;;20.78;42.18;98252.78;5015187;28;20038;-72
2021/05/24 11:33:49;;;;;;;2.13;0.60;;;;;;;20.94;41.93;98245.28;4999465;28;20026;-72
2021/05/24 11:36:34;;;;;;;1.35;0.88;;;;;;;22.34;39.35;98236.31;5014946;28;20037;-71
2021/05/24 11:39:16;;;;;;;0.73;0.40;;;;;;;23.04;37.09;98229.34;4997267;28;20046;-72
2021/05/24 11:41:57;;;;;;;0.88;0.52;;;;;;;24.57;35.55;98223.84;5011659;28;20282;-72